Time;durP1;ratioP1;P1;durP2;ratioP2;P2;SDS_P1;SDS_P2;PMS_P1;PMS_P2;Temp;Humidity;BMP_temperature;BMP_pressure;BME280_temperature;BME280_humidity;BME280_pressure;Samples;Min_cycle;Max_cycle;Signal;HPM_P1;HPM_P2
2021/12/05 00:22:21;;;;;;;2.47;2.03;;;19.50;49.80;;;;;;5116454;28;20020;-89
2021/12/05 00:24:50;;;;;;;2.90;2.03;;;19.50;49.80;;;;;;5100346;28;20119;-89
2021/12/05 00:27:23;;;;;;;3.13;2.03;;;19.40;49.80;;;;;;5097973;28;20027;-88
2021/12/05 00:30:10;;;;;;;;;;;19.40;49.80;;;;;;5082056;28;20036;-91
2021/12/05 00:32:58;;;;;;;3.05;2.00;;;19.40;49.80;;;;;;5097871;28;20353;-90
2021/12/05 00:57:03;;;;;;;2.60;1.92;;;19.10;50.00;;;;;;5115448;28;20028;-90
2021/12/05 01:09:53;;;;;;;2.47;2.05;;;19.00;50.10;;;;;;5115548;28;20015;-89
2021/12/05 01:17:28;;;;;;;2.70;2.10;;;19.00;50.20;;;;;;5097480;28;20028;-89
2021/12/05 01:19:55;;;;;;;3.15;1.90;;;19.00;50.20;;;;;;5096692;28;20081;-89
2021/12/05 01:22:22;;;;;;;2.45;1.90;;;18.90;50.20;;;;;;5096919;28;20016;-89
2021/12/05 01:27:38;;;;;;;2.53;1.92;;;18.90;50.30;;;;;;5114928;28;20114;-90
2021/12/05 01:33:59;;;;;;;2.60;1.90;;;18.80;50.30;;;;;;5115291;28;20031;-87
2021/12/05 01:36:05;;;;;;;2.25;1.73;;;18.80;50.30;;;;;;5101013;28;20034;-86
2021/12/05 01:38:53;;;;;;;3.00;1.93;;;18.80;50.40;;;;;;5114928;28;20016;-90
2021/12/05 01:49:45;;;;;;;2.30;2.10;;;18.70;50.40;;;;;;5130899;28;20095;-86
2021/12/05 01:52:31;;;;;;;2.85;1.90;;;18.70;50.40;;;;;;5124736;28;20031;-86
2021/12/05 01:57:47;;;;;;;3.25;2.05;;;18.60;51.40;;;;;;5116156;28;20040;-91
2021/12/05 02:09:03;;;;;;;2.58;2.10;;;18.50;50.50;;;;;;5114637;28;20082;-88
2021/12/05 02:41:23;;;;;;;4.35;2.20;;;18.30;50.80;;;;;;5118479;28;20015;-88
2021/12/05 02:44:15;;;;;;;2.90;2.13;;;18.30;50.90;;;;;;5100452;28;20047;-92
2021/12/05 02:46:44;;;;;;;2.67;2.17;;;18.30;50.90;;;;;;5100027;28;20044;-87
2021/12/05 02:49:12;;;;;;;2.35;2.15;;;18.20;50.90;;;;;;5083642;28;20123;-90
2021/12/05 02:51:40;;;;;;;3.53;1.88;;;18.20;50.80;;;;;;5100176;28;20023;-90
2021/12/05 02:54:11;;;;;;;2.53;2.20;;;18.20;50.80;;;;;;5100052;28;20085;-86
2021/12/05 02:56:45;;;;;;;2.05;1.73;;;18.20;51.00;;;;;;5101226;28;20112;-89
2021/12/05 03:02:10;;;;;;;2.75;2.25;;;18.20;50.90;;;;;;5118342;28;20480;-87
2021/12/05 03:04:40;;;;;;;2.90;1.85;;;18.20;51.00;;;;;;5117977;28;20024;-88
2021/12/05 03:07:08;;;;;;;2.25;1.80;;;18.10;51.00;;;;;;5117932;28;20106;-90
2021/12/05 03:09:35;;;;;;;2.72;1.85;;;18.10;51.00;;;;;;5099772;28;20063;-90
2021/12/05 03:12:02;;;;;;;2.75;1.88;;;18.10;51.00;;;;;;5099586;28;20030;-90
2021/12/05 03:14:27;;;;;;;2.92;1.88;;;18.10;51.00;;;;;;5116822;28;20713;-90
2021/12/05 03:16:53;;;;;;;2.33;2.10;;;18.10;51.00;;;;;;5099403;28;20118;-89
2021/12/05 03:19:19;;;;;;;2.35;1.77;;;18.10;51.10;;;;;;5099309;28;20022;-88
2021/12/05 03:21:47;;;;;;;3.42;2.22;;;18.00;51.00;;;;;;5117465;28;20024;-87
2021/12/05 03:24:15;;;;;;;2.20;1.80;;;18.00;51.00;;;;;;5099456;28;20469;-88
2021/12/05 03:26:45;;;;;;;2.22;1.73;;;18.00;51.10;;;;;;5099522;28;20032;-88
2021/12/05 03:29:12;;;;;;;2.22;1.70;;;18.00;51.10;;;;;;5099338;28;20035;-88
2021/12/05 03:31:38;;;;;;;1.88;1.60;;;18.00;51.20;;;;;;5082393;28;20088;-91
2021/12/05 03:34:10;;;;;;;2.42;1.83;;;18.00;51.10;;;;;;5099256;28;20032;-87
2021/12/05 03:36:37;;;;;;;2.00;1.80;;;18.00;51.20;;;;;;5099158;28;20024;-92
2021/12/05 03:39:07;;;;;;;2.35;1.80;;;17.90;51.10;;;;;;5098995;28;20477;-90
2021/12/05 03:41:33;;;;;;;1.98;1.75;;;17.90;51.20;;;;;;5116790;28;20023;-89
2021/12/05 03:44:01;;;;;;;2.00;1.58;;;17.90;51.20;;;;;;5099292;28;20045;-88
2021/12/05 03:46:27;;;;;;;2.38;1.80;;;17.90;51.20;;;;;;5116783;28;20110;-88
2021/12/05 03:48:57;;;;;;;2.47;1.70;;;17.90;51.40;;;;;;5082234;28;20024;-89
2021/12/05 03:51:24;;;;;;;2.15;1.73;;;17.90;51.40;;;;;;5099396;28;20031;-87
2021/12/05 03:53:51;;;;;;;2.22;1.70;;;17.90;51.30;;;;;;5098599;28;20028;-87
2021/12/05 03:56:18;;;;;;;2.78;1.73;;;17.80;51.30;;;;;;5098664;28;20046;-88
2021/12/05 03:58:44;;;;;;;2.20;1.58;;;17.80;51.30;;;;;;5116972;28;20023;-88
2021/12/05 04:01:13;;;;;;;2.45;1.60;;;17.80;51.30;;;;;;5117204;28;20047;-89
2021/12/05 04:03:40;;;;;;;2.15;1.67;;;17.80;51.40;;;;;;5098616;28;20507;-87
2021/12/05 04:06:09;;;;;;;2.63;1.60;;;17.80;51.40;;;;;;5081715;28;20103;-88
2021/12/05 04:08:36;;;;;;;1.92;1.50;;;17.80;51.40;;;;;;5116862;28;20111;-91
2021/12/05 04:11:12;;;;;;;1.88;1.63;;;17.70;51.40;;;;;;5116571;28;20016;-89
2021/12/05 04:13:37;;;;;;;2.33;1.80;;;17.70;51.40;;;;;;5081647;28;20028;-89
2021/12/05 04:16:05;;;;;;;1.90;1.50;;;17.70;51.50;;;;;;5115758;28;20024;-88
2021/12/05 04:18:31;;;;;;;2.65;1.40;;;17.70;52.50;;;;;;5116446;28;20485;-87
2021/12/05 04:20:57;;;;;;;2.60;1.55;;;17.70;51.60;;;;;;5098010;28;20491;-89
2021/12/05 04:23:23;;;;;;;1.90;1.58;;;17.70;51.60;;;;;;5098433;28;20031;-89
2021/12/05 04:25:51;;;;;;;2.20;1.70;;;17.70;51.60;;;;;;5098068;28;20111;-89
2021/12/05 04:28:18;;;;;;;1.63;1.33;;;17.60;51.50;;;;;;5098201;28;20020;-92
2021/12/05 04:30:45;;;;;;;1.60;1.50;;;17.60;51.60;;;;;;5116353;28;20058;-89
2021/12/05 04:33:10;;;;;;;2.92;1.70;;;17.60;51.60;;;;;;5116368;28;20051;-89
2021/12/05 04:35:36;;;;;;;2.25;1.40;;;17.60;51.60;;;;;;5097685;28;20055;-91
2021/12/05 04:38:03;;;;;;;1.83;1.42;;;17.60;51.60;;;;;;5115496;28;20065;-86
2021/12/05 04:40:28;;;;;;;1.90;1.50;;;17.60;51.70;;;;;;5097914;28;20015;-90
2021/12/05 04:42:54;;;;;;;1.73;1.40;;;17.50;51.60;;;;;;5097675;28;20118;-88
2021/12/05 04:45:24;;;;;;;1.42;1.20;;;17.60;51.80;;;;;;5097847;28;20016;-88
2021/12/05 04:47:50;;;;;;;2.03;1.50;;;17.50;51.70;;;;;;5097607;28;20048;-90
2021/12/05 04:50:17;;;;;;;1.55;1.30;;;17.50;51.80;;;;;;5097823;28;20027;-89
2021/12/05 04:52:44;;;;;;;2.38;1.65;;;17.50;51.70;;;;;;5097401;28;20024;-86
2021/12/05 04:55:10;;;;;;;1.77;1.42;;;17.50;51.80;;;;;;5097201;28;20015;-92
2021/12/05 04:57:38;;;;;;;2.90;1.63;;;17.50;51.80;;;;;;5097628;28;20111;-90
2021/12/05 05:00:12;;;;;;;2.00;1.40;;;17.50;51.80;;;;;;5115377;28;20095;-89
2021/12/05 05:02:39;;;;;;;3.33;1.50;;;17.50;51.80;;;;;;5080978;28;20030;-90
2021/12/05 05:05:05;;;;;;;2.00;1.38;;;17.40;51.80;;;;;;5115495;28;20024;-86
2021/12/05 05:07:31;;;;;;;1.63;1.30;;;17.40;51.80;;;;;;5115466;28;20019;-88
2021/12/05 05:10:08;;;;;;;2.10;1.60;;;17.40;51.80;;;;;;5097384;28;20496;-87
2021/12/05 05:12:34;;;;;;;1.70;1.60;;;17.40;51.70;;;;;;5115510;28;20038;-91
2021/12/05 05:14:59;;;;;;;1.70;1.30;;;17.40;51.80;;;;;;5096987;28;20027;-91
2021/12/05 05:17:25;;;;;;;2.97;1.67;;;17.40;51.90;;;;;;5115522;28;20023;-88
2021/12/05 05:19:56;;;;;;;1.60;1.50;;;17.30;51.90;;;;;;5115395;28;20023;-90
2021/12/05 05:52:04;;;;;;;1.80;1.38;;;17.20;52.00;;;;;;5114752;28;20106;-89
2021/12/05 05:54:30;;;;;;;1.67;1.40;;;17.20;52.00;;;;;;5096474;28;20028;-88
2021/12/05 05:57:03;;;;;;;2.15;1.25;;;17.20;52.10;;;;;;5114421;28;20030;-86
2021/12/05 05:59:39;;;;;;;1.63;1.30;;;17.20;52.10;;;;;;5096797;28;20022;-88
2021/12/05 06:04:33;;;;;;;2.13;1.35;;;17.10;52.10;;;;;;5115214;28;20022;-88
2021/12/05 06:06:59;;;;;;;3.45;1.30;;;17.10;52.00;;;;;;5114331;28;20023;-89
2021/12/05 06:09:24;;;;;;;2.88;1.58;;;17.10;51.90;;;;;;5096410;28;20097;-89
2021/12/05 06:11:50;;;;;;;1.67;1.23;;;17.10;51.90;;;;;;5114230;28;20492;-91
2021/12/05 06:14:15;;;;;;;2.45;1.50;;;17.10;52.00;;;;;;5096515;28;20023;-90
2021/12/05 06:16:41;;;;;;;1.95;1.25;;;17.10;52.10;;;;;;5114246;28;20385;-89
2021/12/05 06:19:07;;;;;;;3.70;1.40;;;17.20;52.20;;;;;;5114252;28;20065;-90
2021/12/05 06:21:33;;;;;;;1.83;1.27;;;17.20;52.10;;;;;;5096259;28;20072;-92
2021/12/05 06:23:58;;;;;;;1.95;1.10;;;17.20;52.00;;;;;;5114401;28;20027;-90
2021/12/05 06:26:24;;;;;;;2.72;1.30;;;17.40;52.10;;;;;;5114260;28;20031;-89
2021/12/05 06:31:53;;;;;;;2.25;1.40;;;17.60;51.80;;;;;;5114530;28;20528;-88
2021/12/05 06:47:54;;;;;;;2.00;1.33;;;18.60;50.30;;;;;;5114292;28;20070;-88
2021/12/05 06:50:19;;;;;;;2.30;1.17;;;18.80;50.10;;;;;;5095720;28;20054;-87
2021/12/05 06:52:45;;;;;;;2.90;1.20;;;19.00;49.70;;;;;;5114180;28;20027;-88
2021/12/05 06:55:13;;;;;;;2.08;1.10;;;19.20;50.10;;;;;;5114175;28;20148;-88
2021/12/05 06:57:40;;;;;;;4.50;1.35;;;19.30;49.20;;;;;;5095758;28;20119;-87
2021/12/05 07:00:15;;;;;;;2.63;1.20;;;19.50;48.80;;;;;;5095768;28;20051;-88
2021/12/05 07:02:41;;;;;;;1.70;1.10;;;19.60;48.60;;;;;;5095579;28;20166;-87
2021/12/05 07:07:40;;;;;;;3.53;1.15;;;19.90;48.00;;;;;;5114268;28;20034;-88
2021/12/05 07:10:09;;;;;;;2.50;1.20;;;20.00;47.70;;;;;;5095551;28;20016;-89
2021/12/05 07:13:15;;;;;;;2.78;1.30;;;20.10;47.50;;;;;;5113849;28;20050;-88
2021/12/05 07:21:04;;;;;;;2.63;1.30;;;20.30;47.20;;;;;;5117958;28;20042;-88
2021/12/05 07:23:43;;;;;;;3.05;1.00;;;20.40;47.10;;;;;;5086326;28;20031;-87
2021/12/05 07:26:18;;;;;;;4.30;1.30;;;20.40;47.00;;;;;;5117281;28;20464;-88
2021/12/05 07:42:27;;;;;;;5.68;1.30;;;20.50;46.90;;;;;;5116958;28;20500;-86
2021/12/05 07:44:55;;;;;;;5.15;1.40;;;20.50;46.90;;;;;;5116690;28;20026;-86
2021/12/05 07:47:25;;;;;;;4.57;1.52;;;20.50;46.90;;;;;;5116628;28;20055;-86
2021/12/05 07:49:53;;;;;;;3.55;1.50;;;20.60;47.00;;;;;;5116538;28;20107;-87
2021/12/05 07:52:22;;;;;;;5.60;1.30;;;20.50;46.90;;;;;;5098257;28;20023;-86
2021/12/05 07:54:56;;;;;;;4.72;1.55;;;20.50;47.00;;;;;;5116640;28;20043;-88
2021/12/05 07:57:31;;;;;;;3.25;1.40;;;20.50;46.90;;;;;;5116350;28;20016;-86
2021/12/05 08:01:04;;;;;;;4.32;1.45;;;20.50;47.00;;;;;;5116401;28;20012;-87
2021/12/05 08:16:40;;;;;;;3.58;1.15;;;20.50;47.20;;;;;;5116445;28;20050;-87
2021/12/05 08:19:06;;;;;;;4.25;1.45;;;20.40;47.30;;;;;;5116170;28;20027;-87
2021/12/05 08:21:32;;;;;;;4.93;1.45;;;20.40;47.30;;;;;;5115967;28;20024;-87
2021/12/05 08:23:58;;;;;;;4.15;1.60;;;20.40;47.30;;;;;;5097826;28;20077;-87
2021/12/05 08:26:31;;;;;;;4.85;1.58;;;20.40;47.30;;;;;;5115990;28;20385;-86
2021/12/05 08:34:09;;;;;;;7.15;2.10;;;20.40;47.50;;;;;;5115818;28;20109;-88
2021/12/05 09:28:34;;;;;;;3.25;1.63;;;20.30;47.80;;;;;;5115171;28;20047;-88
2021/12/05 10:03:07;;;;;;;15.57;1.90;;;20.30;48.20;;;;;;5113698;28;20503;-85
2021/12/05 10:11:31;;;;;;;11.88;1.80;;;20.40;48.50;;;;;;5113787;28;20041;-86
2021/12/05 10:36:06;;;;;;;11.35;2.03;;;21.30;47.10;;;;;;5113149;28;20073;-88
2021/12/05 10:38:50;;;;;;;14.90;2.40;;;21.40;46.70;;;;;;5112956;28;20107;-88
2021/12/05 10:44:01;;;;;;;;;;;21.60;46.10;;;;;;5111240;28;20103;-89
2021/12/05 10:46:29;;;;;;;13.98;2.78;;;21.60;46.20;;;;;;5038637;28;1119864;-89
2021/12/05 10:49:03;;;;;;;11.63;1.85;;;21.70;45.90;;;;;;5075313;28;20024;-88
2021/12/05 10:51:37;;;;;;;10.43;1.83;;;21.80;45.70;;;;;;5076090;28;20394;-89
2021/12/05 10:54:09;;;;;;;8.85;2.22;;;21.80;45.60;;;;;;5080436;28;20394;-87
2021/12/05 10:56:38;;;;;;;12.63;2.15;;;21.90;45.40;;;;;;5097431;28;20035;-88
2021/12/05 10:59:11;;;;;;;12.85;3.50;;;21.90;45.40;;;;;;5097459;28;20034;-88
2021/12/05 11:01:42;;;;;;;;;;;21.90;45.40;;;;;;5079478;28;20031;-88
2021/12/05 11:04:22;;;;;;;20.10;4.38;;;21.90;45.60;;;;;;5097059;28;20258;-88
2021/12/05 11:07:07;;;;;;;17.40;3.78;;;22.00;45.60;;;;;;5096868;28;20078;-87
2021/12/05 11:09:36;;;;;;;19.15;3.90;;;22.00;45.50;;;;;;5097178;28;20524;-86
2021/12/05 11:12:03;;;;;;;16.45;3.58;;;22.00;45.50;;;;;;5097237;28;20027;-88
2021/12/05 11:14:31;;;;;;;14.73;4.07;;;22.00;45.50;;;;;;5097068;28;20047;-87
2021/12/05 11:17:02;;;;;;;16.85;4.38;;;22.00;45.50;;;;;;5097045;28;20032;-88
2021/12/05 11:19:43;;;;;;;18.65;4.03;;;22.00;45.40;;;;;;5097237;28;20102;-86
2021/12/05 11:22:25;;;;;;;16.48;4.15;;;22.00;45.40;;;;;;5078820;28;20024;-87
2021/12/05 11:24:52;;;;;;;12.80;4.07;;;22.00;45.40;;;;;;5096860;28;20465;-86
2021/12/05 11:27:44;;;;;;;12.95;4.32;;;22.00;45.50;;;;;;5096780;28;20474;-88
2021/12/05 11:30:14;;;;;;;14.65;4.18;;;22.00;45.40;;;;;;5096956;28;20039;-86
2021/12/05 11:32:58;;;;;;;12.75;3.83;;;21.90;45.50;;;;;;5096748;28;20027;-86
2021/12/05 11:35:31;;;;;;;15.07;4.05;;;22.00;45.50;;;;;;5096433;28;20031;-85
2021/12/05 11:38:06;;;;;;;11.88;4.47;;;21.90;45.60;;;;;;5095819;28;20509;-88
2021/12/05 11:40:48;;;;;;;14.15;4.30;;;21.90;45.60;;;;;;5096128;28;20030;-87
2021/12/05 11:43:36;;;;;;;13.63;4.22;;;21.90;45.70;;;;;;5096246;28;20017;-84
2021/12/05 11:46:12;;;;;;;13.27;4.07;;;21.90;45.80;;;;;;5082859;28;20515;-85
2021/12/05 11:48:53;;;;;;;14.85;4.38;;;21.90;45.90;;;;;;5116654;28;20371;-85
2021/12/05 11:51:37;;;;;;;15.43;4.20;;;21.90;45.90;;;;;;5115676;28;20035;-84
2021/12/05 11:54:26;;;;;;;12.27;4.00;;;21.90;45.90;;;;;;5116239;28;20020;-84
2021/12/05 11:56:51;;;;;;;10.82;3.85;;;21.80;45.90;;;;;;5116103;28;20387;-84
2021/12/05 11:59:41;;;;;;;15.63;4.25;;;21.80;46.10;;;;;;5116522;28;20023;-84
2021/12/05 12:02:13;;;;;;;13.63;3.95;;;21.80;47.10;;;;;;5115644;28;20024;-84
2021/12/05 12:05:14;;;;;;;11.38;3.78;;;21.80;47.10;;;;;;5116276;28;20087;-84
2021/12/05 12:08:05;;;;;;;10.32;3.63;;;21.80;46.00;;;;;;5115590;28;20023;-84
2021/12/05 12:10:32;;;;;;;10.10;4.03;;;21.80;46.00;;;;;;5115832;28;20096;-84
2021/12/05 12:13:02;;;;;;;11.00;3.63;;;21.80;46.00;;;;;;5114859;28;20034;-85
2021/12/05 12:15:29;;;;;;;7.43;3.60;;;21.80;46.00;;;;;;5116214;28;20020;-83
2021/12/05 12:18:04;;;;;;;10.68;3.80;;;21.80;46.00;;;;;;5115735;28;20031;-83
2021/12/05 12:20:30;;;;;;;8.77;3.55;;;21.80;45.90;;;;;;5114820;28;20032;-83
2021/12/05 12:22:56;;;;;;;9.80;3.70;;;21.90;45.90;;;;;;5115613;28;20023;-84
2021/12/05 12:25:28;;;;;;;8.93;3.63;;;21.90;45.90;;;;;;5115430;28;20046;-84
2021/12/05 12:27:55;;;;;;;7.78;3.20;;;21.90;45.90;;;;;;5116107;28;20047;-85
2021/12/05 12:30:24;;;;;;;9.13;3.17;;;21.90;45.90;;;;;;5116032;28;20032;-85
2021/12/05 12:32:57;;;;;;;12.82;3.13;;;21.90;45.80;;;;;;5115863;28;20024;-84
2021/12/05 12:35:29;;;;;;;8.52;3.47;;;21.90;45.80;;;;;;5115418;28;20049;-84
2021/12/05 12:38:02;;;;;;;5.40;2.83;;;21.90;45.80;;;;;;5115737;28;20027;-84
2021/12/05 12:40:52;;;;;;;9.10;3.17;;;21.90;45.70;;;;;;5114997;28;20016;-85
2021/12/05 12:43:44;;;;;;;8.40;3.13;;;22.00;45.70;;;;;;5115140;28;20031;-84
2021/12/05 12:46:54;;;;;;;12.32;3.38;;;22.00;45.70;;;;;;5114881;28;20111;-84
2021/12/05 12:49:22;;;;;;;7.80;2.75;;;22.00;45.70;;;;;;5114760;28;20039;-85
2021/12/05 12:51:54;;;;;;;7.95;3.50;;;22.00;45.70;;;;;;5113669;28;20011;-85
2021/12/05 12:54:27;;;;;;;9.45;3.10;;;22.00;45.70;;;;;;5113158;28;20019;-85
2021/12/05 12:57:19;;;;;;;10.20;3.38;;;22.00;45.60;;;;;;5114078;28;20525;-85
2021/12/05 13:00:08;;;;;;;7.38;2.88;;;22.00;45.60;;;;;;5115404;28;20406;-85
2021/12/05 13:03:13;;;;;;;8.48;2.90;;;22.00;45.70;;;;;;5114768;28;20063;-85
2021/12/05 13:07:20;;;;;;;11.45;3.28;;;22.10;45.70;;;;;;5115047;28;20471;-84
2021/12/05 13:11:49;;;;;;;9.80;3.10;;;22.10;45.20;;;;;;5115295;28;20073;-85
2021/12/05 13:14:15;;;;;;;11.30;3.10;;;22.00;45.10;;;;;;5114565;28;20036;-85
2021/12/05 13:16:44;;;;;;;13.02;3.00;;;22.10;45.20;;;;;;5115153;28;20094;-85
2021/12/05 13:19:13;;;;;;;14.57;3.38;;;22.10;45.20;;;;;;5114820;28;20530;-86
2021/12/05 13:21:45;;;;;;;11.25;3.13;;;22.10;45.20;;;;;;5096962;28;20481;-88
2021/12/05 13:24:44;;;;;;;17.48;3.53;;;22.00;45.10;;;;;;5114999;28;20016;-86
2021/12/05 13:27:29;;;;;;;7.07;3.03;;;22.10;45.20;;;;;;5114514;28;20048;-87
2021/12/05 13:29:56;;;;;;;6.88;2.90;;;22.10;46.10;;;;;;5096791;28;20030;-86
2021/12/05 13:32:26;;;;;;;9.75;3.47;;;22.00;45.00;;;;;;5114606;28;20073;-86
2021/12/05 13:35:07;;;;;;;10.02;3.67;;;22.00;45.00;;;;;;5096634;28;20081;-87
2021/12/05 13:37:53;;;;;;;6.80;3.28;;;22.00;45.00;;;;;;5114934;28;20405;-87
2021/12/05 13:40:26;;;;;;;10.23;3.35;;;22.00;44.90;;;;;;5114720;28;20102;-87
2021/12/05 13:43:03;;;;;;;10.85;3.47;;;22.00;45.10;;;;;;5114627;28;20024;-88
2021/12/05 13:45:35;;;;;;;10.45;3.60;;;22.00;45.10;;;;;;5114565;28;20023;-86
2021/12/05 13:48:01;;;;;;;9.88;3.60;;;22.00;45.00;;;;;;5114158;28;20459;-87
2021/12/05 13:50:34;;;;;;;10.32;3.70;;;21.90;45.00;;;;;;5114069;28;20066;-86
2021/12/05 13:53:02;;;;;;;7.70;3.67;;;21.90;45.00;;;;;;5114488;28;20024;-86
2021/12/05 13:55:50;;;;;;;9.05;3.20;;;21.90;45.00;;;;;;5114742;28;20031;-87
2021/12/05 13:58:48;;;;;;;8.40;3.38;;;21.90;45.00;;;;;;5114254;28;20028;-87
2021/12/05 14:01:31;;;;;;;8.82;3.60;;;21.90;45.00;;;;;;5041575;28;20062;-86
2021/12/05 14:04:23;;;;;;;7.03;3.15;;;21.90;45.00;;;;;;5114384;28;20404;-87
2021/12/05 14:06:58;;;;;;;9.95;3.35;;;21.90;45.20;;;;;;5114573;28;20024;-86
2021/12/05 14:09:23;;;;;;;6.95;3.15;;;21.90;45.20;;;;;;5114360;28;20024;-86
2021/12/05 14:11:54;;;;;;;10.63;3.67;;;21.90;45.20;;;;;;5114266;28;20047;-87
2021/12/05 14:14:23;;;;;;;8.27;3.20;;;21.80;45.10;;;;;;5114390;28;20435;-86
2021/12/05 14:16:50;;;;;;;7.03;3.15;;;21.90;45.10;;;;;;5113730;28;20028;-86
2021/12/05 14:19:20;;;;;;;6.15;2.92;;;21.80;45.10;;;;;;5114082;28;20499;-86
2021/12/05 14:21:50;;;;;;;8.30;3.35;;;21.80;45.10;;;;;;5114098;28;20111;-86
2021/12/05 14:24:18;;;;;;;7.95;3.45;;;21.80;45.10;;;;;;5113979;28;20016;-88
2021/12/05 14:26:48;;;;;;;8.05;3.42;;;21.80;45.20;;;;;;5094662;28;20051;-87
2021/12/05 14:29:16;;;;;;;7.63;3.25;;;21.80;45.10;;;;;;5113996;28;20016;-88
2021/12/05 14:31:51;;;;;;;6.13;3.10;;;21.80;45.10;;;;;;5095295;28;20465;-87
2021/12/05 14:34:17;;;;;;;8.93;3.08;;;21.80;45.10;;;;;;5113972;28;20074;-87
2021/12/05 14:36:46;;;;;;;10.10;3.50;;;21.80;45.10;;;;;;5113878;28;20027;-87
2021/12/05 14:39:25;;;;;;;15.25;3.75;;;21.90;45.20;;;;;;5114278;28;20019;-87
2021/12/05 14:41:57;;;;;;;22.58;3.92;;;21.90;45.30;;;;;;5113884;28;20136;-85
2021/12/05 14:44:23;;;;;;;19.67;3.55;;;21.90;45.40;;;;;;5114047;28;20432;-87
2021/12/05 14:46:54;;;;;;;18.05;3.92;;;21.90;45.60;;;;;;5113498;28;20115;-92
2021/12/05 14:49:21;;;;;;;24.92;4.00;;;21.90;45.70;;;;;;5095807;28;20028;-89
2021/12/05 14:51:48;;;;;;;26.73;3.97;;;21.90;45.80;;;;;;5113801;28;20608;-89
2021/12/05 14:54:26;;;;;;;33.38;3.97;;;21.90;45.90;;;;;;5095492;28;20492;-85
2021/12/05 14:56:52;;;;;;;21.40;3.92;;;22.00;46.00;;;;;;5113893;28;20031;-89
2021/12/05 14:59:20;;;;;;;32.85;4.63;;;22.00;46.00;;;;;;5113763;28;20426;-86
2021/12/05 15:01:53;;;;;;;26.90;4.00;;;22.00;46.00;;;;;;5114069;28;20466;-91
2021/12/05 15:04:23;;;;;;;22.58;4.20;;;22.00;45.90;;;;;;5095997;28;20043;-90
2021/12/05 15:06:49;;;;;;;27.63;4.72;;;22.00;45.80;;;;;;5114015;28;20050;-89
2021/12/05 15:09:29;;;;;;;24.17;4.50;;;22.00;45.80;;;;;;5113805;28;20381;-88
2021/12/05 15:12:04;;;;;;;18.67;3.92;;;22.00;45.70;;;;;;5095983;28;20081;-88
2021/12/05 15:14:32;;;;;;;24.40;4.03;;;22.00;45.70;;;;;;5095880;28;20019;-87
2021/12/05 15:17:09;;;;;;;20.15;4.00;;;22.10;45.80;;;;;;5113798;28;20019;-89
2021/12/05 15:19:39;;;;;;;20.48;3.95;;;22.00;45.80;;;;;;5096189;28;20358;-88
2021/12/05 15:22:05;;;;;;;16.35;3.75;;;22.00;45.70;;;;;;5113999;28;20553;-89
2021/12/05 15:24:31;;;;;;;24.15;4.47;;;22.00;45.70;;;;;;5113852;28;20102;-91
2021/12/05 15:26:58;;;;;;;15.15;3.25;;;22.00;45.70;;;;;;5113793;28;20058;-89
2021/12/05 15:29:25;;;;;;;12.82;3.45;;;22.10;45.70;;;;;;5095726;28;20028;-87
2021/12/05 15:31:52;;;;;;;14.45;3.55;;;22.10;45.60;;;;;;5113897;28;20028;-88
2021/12/05 15:34:27;;;;;;;14.02;3.78;;;22.10;45.70;;;;;;5113487;28;20035;-90
2021/12/05 15:36:54;;;;;;;15.50;3.45;;;22.00;45.50;;;;;;5113417;28;20429;-90
2021/12/05 15:39:25;;;;;;;18.23;3.78;;;22.10;45.60;;;;;;5098375;28;20023;-87
2021/12/05 15:41:54;;;;;;;14.55;3.30;;;22.10;45.60;;;;;;5117296;28;20095;-86
2021/12/05 15:44:28;;;;;;;15.35;3.25;;;22.10;45.60;;;;;;5099073;28;20492;-90
2021/12/05 15:47:24;;;;;;;14.02;3.75;;;22.00;45.50;;;;;;5117012;28;20075;-87
2021/12/05 15:50:06;;;;;;;9.57;3.25;;;22.00;45.60;;;;;;5103128;28;20067;-87
2021/12/05 15:52:52;;;;;;;14.70;4.00;;;22.00;45.50;;;;;;5098716;28;20024;-88
2021/12/05 15:55:26;;;;;;;13.43;3.17;;;22.00;45.50;;;;;;5116919;28;20031;-91
2021/12/05 15:58:01;;;;;;;8.48;3.13;;;22.00;45.60;;;;;;5116870;28;20066;-88
2021/12/05 16:01:05;;;;;;;8.57;3.03;;;22.00;45.50;;;;;;5098626;28;20020;-89
2021/12/05 16:03:46;;;;;;;11.38;3.15;;;22.00;45.60;;;;;;5072889;28;20431;-89
2021/12/05 16:06:15;;;;;;;11.82;3.40;;;22.00;45.60;;;;;;5116667;28;20028;-90
2021/12/05 16:08:42;;;;;;;10.38;2.95;;;21.90;45.60;;;;;;5116559;28;20103;-86
2021/12/05 16:11:17;;;;;;;11.52;3.35;;;21.90;45.70;;;;;;5098342;28;20406;-86
2021/12/05 16:13:46;;;;;;;7.43;3.47;;;22.00;45.70;;;;;;5098668;28;20085;-87
2021/12/05 16:16:23;;;;;;;13.07;3.28;;;21.90;45.70;;;;;;5125703;28;20027;-86
2021/12/05 16:18:53;;;;;;;6.65;2.80;;;21.90;45.70;;;;;;5127058;28;20048;-89
2021/12/05 16:21:32;;;;;;;10.25;3.15;;;21.90;45.80;;;;;;5127719;28;20051;-88
2021/12/05 16:24:06;;;;;;;9.05;3.13;;;21.90;45.70;;;;;;5098878;28;20008;-90
2021/12/05 16:26:32;;;;;;;11.45;3.33;;;21.90;45.80;;;;;;5118615;28;20023;-87
2021/12/05 16:29:03;;;;;;;8.88;2.95;;;21.90;46.80;;;;;;5101176;28;20111;-88
2021/12/05 16:31:33;;;;;;;5.63;2.60;;;21.90;45.70;;;;;;5085294;28;20031;-91
2021/12/05 16:34:21;;;;;;;9.45;3.00;;;21.90;45.70;;;;;;5077574;28;20055;-90
2021/12/05 16:36:54;;;;;;;7.93;3.00;;;21.90;45.70;;;;;;5077714;28;20028;-89
2021/12/05 16:39:33;;;;;;;13.05;3.25;;;21.90;45.60;;;;;;5077675;28;20028;-88
2021/12/05 16:42:03;;;;;;;12.05;3.22;;;21.90;45.60;;;;;;5077311;28;20062;-88
2021/12/05 16:44:33;;;;;;;9.80;3.30;;;21.90;45.70;;;;;;5095162;28;20031;-88
2021/12/05 16:47:03;;;;;;;8.27;2.88;;;21.90;45.70;;;;;;5094866;28;20079;-87
2021/12/05 16:49:36;;;;;;;7.47;2.92;;;21.90;45.70;;;;;;5094094;28;20024;-87
2021/12/05 16:52:13;;;;;;;11.27;3.00;;;21.90;45.80;;;;;;5079854;28;20115;-87
2021/12/05 16:54:50;;;;;;;8.70;2.55;;;21.90;45.90;;;;;;5094762;28;20021;-87
2021/12/05 16:57:30;;;;;;;11.60;3.00;;;21.90;45.80;;;;;;5095072;28;20027;-88
2021/12/05 17:00:08;;;;;;;12.25;2.72;;;21.90;45.80;;;;;;5101966;28;20016;-90
2021/12/05 17:02:42;;;;;;;9.73;2.88;;;21.80;45.80;;;;;;5097800;28;20016;-90
2021/12/05 17:05:38;;;;;;;9.10;2.80;;;21.80;45.80;;;;;;5115951;28;20077;-90
2021/12/05 17:08:16;;;;;;;12.77;3.10;;;21.80;45.80;;;;;;5114776;28;20044;-89
2021/12/05 17:10:56;;;;;;;10.73;2.97;;;21.80;45.80;;;;;;5115503;28;20078;-88
2021/12/05 17:13:27;;;;;;;11.98;2.60;;;21.80;45.80;;;;;;5114558;28;20030;-91
2021/12/05 17:16:28;;;;;;;9.98;2.85;;;21.80;45.90;;;;;;5115767;28;20020;-89
2021/12/05 17:18:56;;;;;;;11.30;2.78;;;21.80;45.90;;;;;;5089919;28;20497;-92
2021/12/05 17:21:26;;;;;;;10.70;2.90;;;21.70;46.00;;;;;;5114313;28;20415;-91
2021/12/05 17:23:59;;;;;;;10.68;2.63;;;21.70;45.90;;;;;;5097616;28;20031;-91
2021/12/05 17:26:34;;;;;;;7.68;2.40;;;21.70;46.00;;;;;;5097146;28;20055;-89
2021/12/05 17:29:12;;;;;;;11.57;2.63;;;21.70;46.00;;;;;;5114379;28;20070;-92
2021/12/05 17:31:45;;;;;;;11.63;2.97;;;21.70;46.00;;;;;;5115426;28;20024;-89
2021/12/05 17:34:23;;;;;;;9.35;3.08;;;21.70;46.00;;;;;;5114439;28;20027;-91
2021/12/05 17:36:57;;;;;;;8.98;2.72;;;21.60;45.70;;;;;;5097256;28;20027;-93
2021/12/05 17:39:31;;;;;;;5.82;2.53;;;21.60;45.60;;;;;;5097324;28;20016;-89
2021/12/05 17:42:09;;;;;;;7.50;2.60;;;21.60;45.70;;;;;;5113850;28;20046;-87
2021/12/05 17:44:36;;;;;;;9.32;2.92;;;21.60;45.80;;;;;;5115112;28;20016;-87
2021/12/05 17:47:06;;;;;;;7.43;2.80;;;21.60;45.90;;;;;;5114504;28;20097;-88
2021/12/05 17:49:38;;;;;;;7.95;2.00;;;21.60;46.00;;;;;;5113683;28;20019;-94
2021/12/05 17:52:06;;;;;;;12.23;2.55;;;21.60;46.10;;;;;;5114993;28;20102;-88
2021/12/05 17:54:41;;;;;;;9.60;2.50;;;21.50;46.10;;;;;;5095330;28;20026;-89
2021/12/05 17:57:14;;;;;;;7.82;2.60;;;21.60;46.20;;;;;;5114194;28;20031;-93
2021/12/05 18:00:00;;;;;;;;;;;21.50;46.20;;;;;;5097276;28;20118;-89
2021/12/05 18:02:45;;;;;;;10.98;2.78;;;21.50;46.20;;;;;;5096903;28;19910;-88
2021/12/05 18:05:28;;;;;;;6.30;2.20;;;21.50;46.20;;;;;;5113790;28;20538;-87
2021/12/05 18:08:13;;;;;;;10.10;2.70;;;21.50;46.20;;;;;;5114815;28;20027;-91
2021/12/05 18:11:02;;;;;;;9.57;2.42;;;21.50;46.20;;;;;;5113188;28;20084;-95
2021/12/05 18:13:33;;;;;;;6.55;2.30;;;21.60;46.30;;;;;;5113938;28;20027;-91
2021/12/05 18:16:11;;;;;;;7.43;2.17;;;21.50;46.30;;;;;;5119356;28;20469;-92
2021/12/05 18:18:37;;;;;;;4.72;2.20;;;21.60;46.20;;;;;;5098626;28;20027;-89
2021/12/05 18:21:05;;;;;;;5.40;2.42;;;21.60;47.20;;;;;;5113086;28;20027;-88
2021/12/05 18:23:30;;;;;;;11.15;2.33;;;21.60;46.20;;;;;;5114321;28;20099;-88
2021/12/05 18:25:57;;;;;;;9.25;2.40;;;21.60;46.00;;;;;;5113911;28;20054;-88
2021/12/05 18:28:23;;;;;;;8.32;2.63;;;21.60;45.90;;;;;;5096103;28;20081;-89
2021/12/05 18:30:49;;;;;;;8.35;2.70;;;21.60;45.90;;;;;;5095330;28;20102;-90
2021/12/05 18:33:18;;;;;;;6.80;2.50;;;21.60;46.00;;;;;;5114178;28;20059;-90
2021/12/05 18:35:44;;;;;;;8.25;2.40;;;21.60;46.10;;;;;;5114088;28;20027;-88
2021/12/05 18:38:14;;;;;;;5.22;2.35;;;21.60;46.30;;;;;;5113831;28;20144;-93